Time;durP1;ratioP1;P1;durP2;ratioP2;P2;SDS_P1;SDS_P2;PMS_P1;PMS_P2;Temp;Humidity;BMP_temperature;BMP_pressure;BME280_temperature;BME280_humidity;BME280_pressure;Samples;Min_cycle;Max_cycle;Signal;HPM_P1;HPM_P2
2022/06/05 00:02:02;;;;;;;3.92;3.02;;;;;;;15.47;100.00;99692.10;1759177;81;20134;-64
2022/06/05 00:04:51;;;;;;;5.17;3.50;;;;;;;15.42;100.00;99683.41;1706870;82;20994;-65
2022/06/05 00:07:58;;;;;;;5.42;3.40;;;;;;;15.46;100.00;99675.38;1710880;84;21624;-64
2022/06/05 00:10:28;;;;;;;4.45;2.92;;;;;;;15.53;100.00;99670.88;1719417;82;21796;-65
2022/06/05 00:13:21;;;;;;;4.42;3.05;;;;;;;15.59;100.00;99657.33;1741828;81;20988;-64
2022/06/05 00:15:49;;;;;;;4.22;3.12;;;;;;;15.66;100.00;99648.91;1746135;81;21075;-64
2022/06/05 00:18:15;;;;;;;3.70;2.77;;;;;;;15.71;100.00;99640.58;1734439;82;21032;-64
2022/06/05 00:20:44;;;;;;;4.95;2.80;;;;;;;15.76;100.00;99635.55;1752647;81;21086;-64
2022/06/05 00:23:10;;;;;;;4.10;2.80;;;;;;;15.84;100.00;99627.94;1739788;81;21032;-65
2022/06/05 00:26:00;;;;;;;3.85;2.75;;;;;;;15.95;100.00;99630.70;1714413;82;21148;-64
2022/06/05 00:28:52;;;;;;;5.80;2.90;;;;;;;16.03;100.00;99635.47;1761072;80;21004;-64
2022/06/05 00:31:31;;;;;;;4.15;2.87;;;;;;;16.07;100.00;99636.48;1737585;81;21091;-64
2022/06/05 00:33:58;;;;;;;5.08;2.90;;;;;;;16.11;100.00;99640.80;1768511;81;21027;-64
2022/06/05 00:37:03;;;;;;;5.75;3.12;;;;;;;16.12;100.00;99635.56;1762042;81;21059;-65
2022/06/05 00:39:47;;;;;;;6.33;3.10;;;;;;;16.13;100.00;99631.11;1722666;83;21036;-64
2022/06/05 00:42:16;;;;;;;7.50;3.30;;;;;;;16.11;100.00;99623.76;1755770;81;21071;-63
2022/06/05 00:44:47;;;;;;;4.35;3.10;;;;;;;16.11;100.00;99625.13;1743597;81;20988;-64
2022/06/05 00:47:15;;;;;;;7.35;3.05;;;;;;;16.09;100.00;99616.38;1730801;82;21005;-64
2022/06/05 00:49:55;;;;;;;6.10;3.17;;;;;;;16.12;100.00;99627.32;1740639;81;21016;-64
2022/06/05 00:52:24;;;;;;;5.87;3.20;;;;;;;16.11;100.00;99632.55;1708309;82;21550;-64
2022/06/05 00:54:50;;;;;;;3.92;3.02;;;;;;;16.12;100.00;99627.32;1709365;82;21081;-65
2022/06/05 00:57:16;;;;;;;;;;;;;;;16.12;100.00;99628.11;1773247;80;21515;-64
2022/06/05 00:59:44;;;;;;;4.92;3.22;;;;;;;16.14;100.00;99617.64;1763713;80;20535;-64
2022/06/05 01:02:12;;;;;;;6.28;2.85;;;;;;;16.18;100.00;99613.16;1753955;80;21561;-64
2022/06/05 01:04:42;;;;;;;5.78;3.15;;;;;;;16.22;100.00;99614.16;1730809;82;21028;-65
2022/06/05 01:07:09;;;;;;;8.03;2.75;;;;;;;16.26;100.00;99615.13;1745789;81;21030;-65
2022/06/05 01:09:36;;;;;;;4.75;2.90;;;;;;;16.27;100.00;99612.64;1751448;81;21483;-64
2022/06/05 01:12:36;;;;;;;5.08;2.70;;;;;;;16.28;100.00;99607.41;1741453;80;21058;-64
2022/06/05 01:15:12;;;;;;;4.90;2.80;;;;;;;16.33;100.00;99610.02;1723618;81;21080;-62
2022/06/05 01:18:00;;;;;;;6.20;2.60;;;;;;;16.35;100.00;99601.47;1738654;81;21068;-63
2022/06/05 01:20:57;;;;;;;4.10;2.60;;;;;;;16.35;100.00;99599.54;1746632;81;21565;-63
2022/06/05 01:24:03;;;;;;;4.53;2.75;;;;;;;16.37;100.00;99600.02;1738335;82;21960;-64
2022/06/05 01:26:43;;;;;;;6.67;2.60;;;;;;;16.37;100.00;99599.21;1737698;81;21582;-63
2022/06/05 01:29:25;;;;;;;4.67;2.42;;;;;;;16.35;100.00;99605.59;1741759;81;21561;-64
2022/06/05 01:31:56;;;;;;;3.80;2.35;;;;;;;16.36;100.00;99600.36;1718225;82;21015;-65
2022/06/05 01:34:27;;;;;;;4.45;2.50;;;;;;;16.36;100.00;99603.11;1724999;81;20971;-65
2022/06/05 01:37:05;;;;;;;5.30;2.45;;;;;;;16.36;100.00;99618.21;1741089;81;21063;-65
2022/06/05 01:39:47;;;;;;;3.90;2.37;;;;;;;16.35;100.00;99617.39;1738074;81;20984;-65
2022/06/05 01:42:18;;;;;;;4.75;2.45;;;;;;;16.38;100.00;99619.52;1723204;82;21064;-65
2022/06/05 01:44:46;;;;;;;4.42;2.67;;;;;;;16.42;100.00;99621.89;1719845;81;21589;-64
2022/06/05 01:47:18;;;;;;;4.90;2.30;;;;;;;16.43;100.00;99617.21;1744979;81;21621;-64
2022/06/05 01:49:53;;;;;;;4.08;2.55;;;;;;;16.40;100.00;99613.13;1738074;81;21143;-64
2022/06/05 01:52:36;;;;;;;4.33;2.65;;;;;;;16.36;100.00;99609.97;1727801;81;21039;-63
2022/06/05 01:55:26;;;;;;;5.28;2.58;;;;;;;16.28;100.00;99614.28;1732496;81;21060;-65
2022/06/05 01:57:55;;;;;;;4.65;2.72;;;;;;;16.21;100.00;99597.98;1739942;80;21013;-63
2022/06/05 02:00:22;;;;;;;5.65;2.90;;;;;;;16.20;100.00;99602.66;1781809;80;21042;-63
2022/06/05 02:03:06;;;;;;;4.12;2.80;;;;;;;16.19;100.00;99599.65;1763340;80;21026;-64
2022/06/05 02:05:50;;;;;;;4.00;2.90;;;;;;;16.21;100.00;99600.73;1748468;82;21057;-64
2022/06/05 02:08:44;;;;;;;4.80;3.12;;;;;;;16.20;100.00;99591.67;1743748;80;21044;-64
2022/06/05 02:11:22;;;;;;;4.55;2.90;;;;;;;16.21;100.00;99593.30;1745849;80;21095;-64
2022/06/05 02:13:50;;;;;;;6.00;3.22;;;;;;;16.25;100.00;99595.68;1725594;81;21557;-64
2022/06/05 02:16:17;;;;;;;5.72;3.08;;;;;;;16.30;100.00;99592.79;1732605;82;21040;-63
2022/06/05 02:18:43;;;;;;;;;;;;;;;16.29;100.00;99593.12;1734628;82;21009;-64
2022/06/05 02:21:12;;;;;;;4.40;2.90;;;;;;;16.29;100.00;99593.12;1756318;80;20121;-64
2022/06/05 02:23:38;;;;;;;;;;;;;;;16.23;100.00;99590.22;1756167;80;20988;-64
2022/06/05 02:26:07;;;;;;;5.67;3.50;;;;;;;16.24;100.00;99596.79;1739398;82;20105;-63
2022/06/05 02:28:34;;;;;;;4.30;3.05;;;;;;;16.21;100.00;99593.86;1740299;82;21066;-63
2022/06/05 02:31:09;;;;;;;5.67;3.10;;;;;;;16.24;100.00;99591.86;1763918;81;21074;-63
2022/06/05 02:33:51;;;;;;;4.83;2.90;;;;;;;16.26;100.00;99593.16;1756316;81;21079;-63
2022/06/05 02:36:44;;;;;;;4.45;2.95;;;;;;;16.30;100.00;99589.22;1760320;81;21125;-63
2022/06/05 02:39:50;;;;;;;4.92;2.90;;;;;;;16.37;100.00;99588.22;1751404;81;21529;-63
2022/06/05 02:42:30;;;;;;;4.28;2.72;;;;;;;16.39;100.00;99584.62;1745632;81;21076;-63
2022/06/05 02:45:08;;;;;;;5.30;2.90;;;;;;;16.37;100.00;99585.47;1756328;80;21136;-63
2022/06/05 02:47:53;;;;;;;5.80;2.87;;;;;;;16.38;100.00;99578.86;1724110;82;21831;-63
2022/06/05 02:50:49;;;;;;;4.85;2.75;;;;;;;16.38;100.00;99572.00;1737210;81;21089;-64
2022/06/05 02:53:16;;;;;;;4.05;2.52;;;;;;;16.38;100.00;99565.13;1734116;81;21065;-64
2022/06/05 02:55:43;;;;;;;4.80;2.80;;;;;;;16.38;100.00;99572.81;1728529;81;21086;-63
2022/06/05 02:58:11;;;;;;;3.67;2.50;;;;;;;16.28;100.00;99559.90;1775455;79;21095;-64
2022/06/05 03:00:38;;;;;;;5.65;2.65;;;;;;;16.40;100.00;99573.88;1757749;80;21608;-64
2022/06/05 03:05:50;;;;;;;4.10;2.40;;;;;;;16.49;100.00;99578.86;1775415;80;21079;-64
2022/06/05 03:08:18;;;;;;;4.00;2.70;;;;;;;16.54;100.00;99582.05;1780828;80;21028;-64
2022/06/05 03:10:45;;;;;;;5.58;2.87;;;;;;;16.58;100.00;99583.07;1772239;80;21095;-63
2022/06/05 03:13:13;;;;;;;3.70;2.62;;;;;;;16.62;100.00;99574.42;1784504;80;21668;-64
2022/06/05 03:15:41;;;;;;;3.72;2.70;;;;;;;16.65;100.00;99575.97;1778925;80;21040;-64
2022/06/05 03:18:08;;;;;;;5.03;2.60;;;;;;;16.71;100.00;99578.04;1774308;80;21000;-63
2022/06/05 03:20:34;;;;;;;3.52;2.55;;;;;;;16.76;100.00;99586.13;1751903;80;21004;-65
2022/06/05 03:23:01;;;;;;;3.40;2.30;;;;;;;16.79;100.00;99584.94;1777928;80;21580;-64
2022/06/05 03:25:28;;;;;;;3.60;2.45;;;;;;;16.86;100.00;99581.17;1752917;80;21152;-64
2022/06/05 03:27:54;;;;;;;4.30;2.83;;;;;;;16.96;100.00;99580.66;1767931;80;21562;-64
2022/06/05 03:30:21;;;;;;;5.03;2.72;;;;;;;17.00;100.00;99580.28;1752377;80;21060;-63
2022/06/05 03:32:47;;;;;;;3.72;2.95;;;;;;;17.00;100.00;99578.91;1766296;80;21025;-64
2022/06/05 03:35:16;;;;;;;4.78;2.65;;;;;;;17.01;100.00;99582.69;1758109;80;21454;-64
2022/06/05 03:37:42;;;;;;;6.05;2.83;;;;;;;16.99;100.00;99582.21;1758355;80;21042;-64
2022/06/05 03:40:12;;;;;;;4.15;3.05;;;;;;;16.96;100.00;99580.66;1768050;80;21091;-64
2022/06/05 03:42:40;;;;;;;5.95;3.15;;;;;;;16.93;100.00;99581.30;1752968;80;21048;-64
2022/06/05 03:45:12;;;;;;;4.50;2.70;;;;;;;16.86;100.00;99599.04;1766012;80;21112;-64
2022/06/05 03:47:39;;;;;;;5.85;2.77;;;;;;;16.77;100.00;99598.76;1758296;80;21029;-64
2022/06/05 03:50:09;;;;;;;3.92;2.80;;;;;;;16.68;100.00;99606.98;1781799;80;21065;-64
2022/06/05 03:52:35;;;;;;;4.45;2.65;;;;;;;16.61;100.00;99605.80;1786910;80;20997;-64
2022/06/05 03:55:02;;;;;;;4.20;2.72;;;;;;;16.54;100.00;99610.89;1760773;80;21021;-63
2022/06/05 03:57:30;;;;;;;4.00;2.40;;;;;;;16.49;100.00;99615.13;1757229;80;21037;-64
2022/06/05 03:59:58;;;;;;;7.50;2.55;;;;;;;16.41;100.00;99619.44;1782213;80;21054;-64
2022/06/05 04:02:25;;;;;;;5.00;2.40;;;;;;;16.37;100.00;99617.06;1732408;80;21071;-64
2022/06/05 04:04:52;;;;;;;3.25;2.30;;;;;;;16.33;100.00;99624.34;1753203;80;21116;-64
2022/06/05 04:07:20;;;;;;;3.22;2.05;;;;;;;16.24;100.00;99628.37;1763827;80;21123;-64
2022/06/05 04:09:46;;;;;;;4.67;2.60;;;;;;;16.19;100.00;99631.82;1766070;80;21072;-64
2022/06/05 04:12:13;;;;;;;4.22;2.42;;;;;;;16.17;100.00;99633.48;1757719;80;21033;-64
2022/06/05 04:14:39;;;;;;;5.85;2.83;;;;;;;16.27;100.00;99639.30;1764260;80;21041;-63
2022/06/05 04:17:06;;;;;;;4.10;2.67;;;;;;;16.37;100.00;99647.28;1758160;80;21053;-64
2022/06/05 04:19:34;;;;;;;8.13;3.30;;;;;;;16.45;100.00;99650.66;1763946;80;21044;-65
2022/06/05 04:22:01;;;;;;;6.17;3.62;;;;;;;16.52;100.00;99651.59;1751425;80;21021;-66
2022/06/05 04:24:28;;;;;;;5.58;4.15;;;;;;;16.57;100.00;99648.77;1742088;80;21029;-66
2022/06/05 04:26:55;;;;;;;5.00;3.58;;;;;;;16.60;100.00;99654.45;1766124;80;20985;-64
2022/06/05 04:29:21;;;;;;;8.55;4.78;;;;;;;16.70;100.00;99661.06;1776407;80;21052;-63
2022/06/05 04:31:49;;;;;;;7.25;5.00;;;;;;;16.68;100.00;99656.45;1750326;80;21089;-63
2022/06/05 04:34:19;;;;;;;9.18;4.70;;;;;;;16.69;100.00;99666.85;1751211;80;20993;-65
2022/06/05 04:36:46;;;;;;;7.17;5.17;;;;;;;16.72;100.00;99663.50;1750925;80;21021;-67
2022/06/05 04:39:13;;;;;;;7.62;4.85;;;;;;;16.77;100.00;99656.48;1761086;80;20989;-65
2022/06/05 04:41:39;;;;;;;7.67;5.97;;;;;;;16.84;100.00;99662.34;1750912;80;21041;-64
2022/06/05 04:44:07;;;;;;;10.13;5.12;;;;;;;16.92;100.00;99651.97;1748210;80;21531;-64
2022/06/05 04:46:35;;;;;;;6.50;4.67;;;;;;;16.91;100.00;99663.53;1752715;80;21104;-64
2022/06/05 04:49:01;;;;;;;6.12;4.97;;;;;;;16.90;100.00;99671.52;1751070;80;21048;-64
2022/06/05 04:51:28;;;;;;;7.17;4.35;;;;;;;16.88;100.00;99669.66;1738724;80;21109;-65
2022/06/05 04:53:55;;;;;;;;;;;;;;;16.90;100.00;99664.64;1785773;80;21110;-65
2022/06/05 04:56:24;;;;;;;9.15;4.47;;;;;;;16.98;100.00;99676.82;1719544;82;20431;-64
2022/06/05 04:58:53;;;;;;;6.05;4.65;;;;;;;16.99;100.00;99677.64;1712515;82;21110;-65
2022/06/05 05:01:25;;;;;;;7.72;4.92;;;;;;;16.98;100.00;99673.26;1741042;81;21116;-64
2022/06/05 05:04:01;;;;;;;10.03;5.95;;;;;;;17.01;100.00;99672.63;1730310;82;21055;-66
2022/06/05 05:06:29;;;;;;;7.78;4.75;;;;;;;17.09;100.00;99667.73;1726031;81;21083;-64
2022/06/05 05:08:56;;;;;;;7.53;4.92;;;;;;;17.11;100.00;99679.25;1708249;83;21155;-64
2022/06/05 05:11:23;;;;;;;7.03;4.80;;;;;;;17.14;100.00;99680.80;1700999;84;21661;-65
2022/06/05 05:13:50;;;;;;;8.38;5.08;;;;;;;17.20;100.00;99683.66;1753808;81;21008;-65
2022/06/05 05:16:17;;;;;;;7.17;5.17;;;;;;;17.29;100.00;99680.37;1733323;81;21063;-66
2022/06/05 05:18:44;;;;;;;7.80;4.75;;;;;;;17.36;100.00;99679.91;1727641;83;21633;-65
2022/06/05 05:21:13;;;;;;;;;;;;;;;17.38;100.00;99681.23;1729470;81;21082;-64
2022/06/05 05:23:40;;;;;;;7.95;5.78;;;;;;;17.38;100.00;99679.05;1724988;81;20132;-63
2022/06/05 05:26:14;;;;;;;7.70;5.22;;;;;;;17.33;100.00;99684.11;1728703;81;21491;-64
2022/06/05 05:28:41;;;;;;;11.45;6.50;;;;;;;17.34;100.00;99680.23;1722976;83;21032;-63
2022/06/05 05:31:14;;;;;;;8.73;6.05;;;;;;;17.38;100.00;99677.11;1737701;81;21075;-64
2022/06/05 05:33:41;;;;;;;10.78;6.95;;;;;;;17.39;100.00;99677.92;1723637;82;21035;-64
2022/06/05 05:36:08;;;;;;;10.55;6.37;;;;;;;17.41;100.00;99672.34;1732078;81;21059;-65
2022/06/05 05:38:36;;;;;;;11.22;7.80;;;;;;;17.44;100.00;99675.01;1730673;81;21038;-64
2022/06/05 05:43:47;;;;;;;13.80;7.08;;;;;;;17.36;100.00;99679.34;1727579;81;21012;-65
2022/06/05 05:46:13;;;;;;;;;;;;;;;17.32;100.00;99691.33;1758653;81;21579;-64
2022/06/05 05:48:40;;;;;;;12.25;7.60;;;;;;;17.31;100.00;99689.70;1726712;81;20136;-63
2022/06/05 05:51:13;;;;;;;12.20;7.78;;;;;;;17.29;100.00;99691.38;1729403;83;21032;-63
2022/06/05 05:53:40;;;;;;;10.35;7.17;;;;;;;17.33;100.00;99689.61;1730755;81;21496;-63
2022/06/05 05:56:09;;;;;;;12.47;7.62;;;;;;;17.32;100.00;99689.36;1740565;81;21099;-62
2022/06/05 05:58:37;;;;;;;11.40;7.95;;;;;;;17.33;100.00;99688.23;1736795;81;21084;-64
2022/06/05 06:01:06;;;;;;;10.98;7.55;;;;;;;17.36;100.00;99684.84;1731413;82;21468;-63
2022/06/05 06:03:33;;;;;;;12.15;7.50;;;;;;;17.39;100.00;99678.70;1759907;80;21000;-64
2022/06/05 06:06:00;;;;;;;13.35;7.87;;;;;;;17.52;100.00;99682.49;1738882;82;21125;-63
2022/06/05 06:08:28;;;;;;;14.47;9.00;;;;;;;17.66;100.00;99678.27;1733436;81;21006;-63
2022/06/05 06:10:54;;;;;;;20.90;10.58;;;;;;;17.79;100.00;99676.77;1736549;81;21056;-66
2022/06/05 06:13:21;;;;;;;;;;;;;;;17.94;100.00;99683.76;1751819;81;20994;-65
2022/06/05 06:15:47;;;;;;;19.60;11.73;;;;;;;18.06;100.00;99680.38;1732988;81;20409;-66
2022/06/05 06:18:15;;;;;;;18.75;11.83;;;;;;;18.04;100.00;99673.80;1736090;82;21049;-64
2022/06/05 06:20:42;;;;;;;18.75;11.43;;;;;;;18.05;100.00;99672.68;1760637;81;21030;-65
2022/06/05 06:23:08;;;;;;;17.75;11.35;;;;;;;18.11;100.00;99672.76;1740382;81;21042;-66
2022/06/05 06:25:39;;;;;;;16.73;10.58;;;;;;;18.10;100.00;99671.16;1706726;82;21097;-67
2022/06/05 06:28:06;;;;;;;15.05;9.85;;;;;;;18.18;100.00;99673.09;1713641;82;21105;-66
2022/06/05 06:30:33;;;;;;;14.78;9.85;;;;;;;18.26;100.00;99670.09;1729776;81;21070;-66
2022/06/05 06:33:00;;;;;;;14.47;9.40;;;;;;;18.29;100.00;99669.45;1745368;81;21574;-67
2022/06/05 06:35:27;;;;;;;15.93;8.95;;;;;;;18.30;100.00;99673.83;1735902;81;21050;-65
2022/06/05 06:37:53;;;;;;;14.07;8.78;;;;;;;18.28;100.00;99676.11;1734268;81;21089;-64
2022/06/05 06:40:20;;;;;;;10.98;7.80;;;;;;;18.18;100.00;99670.34;1726725;82;21070;-67
2022/06/05 06:42:46;;;;;;;13.85;8.00;;;;;;;18.15;100.00;99677.05;1739160;81;21067;-66
2022/06/05 06:45:13;;;;;;;13.03;8.15;;;;;;;18.07;100.00;99677.29;1733039;83;21144;-66
2022/06/05 06:47:40;;;;;;;11.65;7.97;;;;;;;18.08;100.00;99678.10;1744032;81;20971;-65
2022/06/05 06:50:08;;;;;;;11.83;7.58;;;;;;;18.11;100.00;99684.34;1744127;81;21058;-66
2022/06/05 06:52:36;;;;;;;12.55;7.55;;;;;;;18.10;100.00;99684.94;1748644;81;20975;-66
2022/06/05 06:55:04;;;;;;;9.20;7.05;;;;;;;18.08;100.00;99676.73;1735663;82;21647;-66
2022/06/05 06:57:30;;;;;;;10.03;6.20;;;;;;;18.00;100.00;99685.22;1729065;82;20985;-67
2022/06/05 06:59:57;;;;;;;9.93;7.15;;;;;;;18.03;100.00;99685.95;1717472;82;21102;-67
2022/06/05 07:02:23;;;;;;;8.55;6.53;;;;;;;18.07;100.00;99677.84;1724652;81;21029;-66
2022/06/05 07:04:50;;;;;;;8.50;6.22;;;;;;;18.03;100.00;99685.16;1719056;81;21042;-67
2022/06/05 07:07:18;;;;;;;13.10;6.28;;;;;;;17.96;100.00;99691.13;1724053;81;21525;-66
2022/06/05 07:09:46;;;;;;;8.90;6.08;;;;;;;17.94;100.00;99689.27;1719200;81;21653;-66
2022/06/05 07:12:13;;;;;;;11.22;5.80;;;;;;;17.97;100.00;99698.82;1735982;81;21611;-65
2022/06/05 07:14:39;;;;;;;7.87;5.50;;;;;;;17.92;100.00;99696.23;1734524;81;21062;-65
2022/06/05 07:17:06;;;;;;;6.75;4.85;;;;;;;17.83;100.00;99692.08;1716168;80;21012;-67
2022/06/05 07:19:33;;;;;;;8.75;5.58;;;;;;;17.83;100.00;99688.76;1736178;81;21048;-65
2022/06/05 07:22:00;;;;;;;6.53;4.85;;;;;;;17.88;100.00;99691.38;1740318;80;20989;-66
2022/06/05 07:24:26;;;;;;;7.37;5.00;;;;;;;17.92;100.00;99687.41;1733714;80;21058;-65
2022/06/05 07:26:54;;;;;;;7.58;4.62;;;;;;;17.89;100.00;99691.59;1727956;81;21047;-67
2022/06/05 07:29:21;;;;;;;9.40;5.03;;;;;;;17.92;100.00;99695.67;1750745;80;21613;-65
2022/06/05 07:31:48;;;;;;;6.60;4.67;;;;;;;17.98;100.00;99698.52;1735390;81;21121;-67
2022/06/05 07:34:14;;;;;;;6.05;4.08;;;;;;;18.01;100.00;99701.18;1724601;81;21133;-67
2022/06/05 07:36:41;;;;;;;6.42;4.60;;;;;;;17.99;100.00;99697.95;1722076;81;21072;-67
2022/06/05 07:39:07;;;;;;;5.65;4.08;;;;;;;17.93;100.00;99697.27;1728889;81;20995;-65
2022/06/05 07:41:36;;;;;;;;;;;;;;;17.89;100.00;99696.29;1744342;81;21019;-68
2022/06/05 07:44:04;;;;;;;5.28;4.12;;;;;;;17.88;100.00;99693.31;1727201;81;20132;-67
2022/06/05 07:46:31;;;;;;;6.72;3.60;;;;;;;17.75;100.00;99696.42;1719541;81;21058;-67
2022/06/05 07:48:58;;;;;;;4.47;3.42;;;;;;;17.54;100.00;99680.78;1742731;81;21034;-67
2022/06/05 07:54:30;;;;;;;8.63;3.58;;;;;;;17.74;100.00;99693.45;1725567;83;21044;-65
2022/06/05 07:57:00;;;;;;;6.08;3.40;;;;;;;17.71;100.00;99682.27;1724958;81;21472;-65
2022/06/05 07:59:29;;;;;;;5.03;3.33;;;;;;;17.65;100.00;99687.09;1734709;81;21046;-65
2022/06/05 08:01:57;;;;;;;6.62;2.87;;;;;;;17.75;100.00;99691.48;1737756;79;20958;-67
2022/06/05 08:04:24;;;;;;;6.53;3.10;;;;;;;17.79;100.00;99693.84;1737494;81;21078;-65
2022/06/05 08:06:51;;;;;;;5.05;2.67;;;;;;;17.74;100.00;99694.01;1713655;80;21049;-65
2022/06/05 08:09:17;;;;;;;6.12;2.80;;;;;;;17.71;100.00;99693.28;1741469;81;21031;-67
2022/06/05 08:11:45;;;;;;;5.70;2.70;;;;;;;17.65;100.00;99691.22;1729095;81;21085;-65
2022/06/05 08:14:12;;;;;;;5.80;2.70;;;;;;;17.58;100.00;99695.00;1739496;81;21107;-66
2022/06/05 08:16:43;;;;;;;4.85;3.08;;;;;;;17.53;100.00;99698.45;1735713;81;21070;-67
2022/06/05 08:19:12;;;;;;;4.12;2.40;;;;;;;17.55;100.00;99703.05;1734394;81;21046;-67
2022/06/05 08:21:40;;;;;;;5.72;2.85;;;;;;;17.57;100.00;99702.22;1743438;81;22226;-66
2022/06/05 08:24:07;;;;;;;4.53;2.50;;;;;;;17.60;100.00;99708.45;1751636;81;21013;-66
2022/06/05 08:26:34;;;;;;;2.70;2.33;;;;;;;17.61;100.00;99707.30;1765232;81;21440;-66
2022/06/05 08:29:00;;;;;;;3.27;2.20;;;;;;;17.57;100.00;99711.85;1739630;81;21008;-66
2022/06/05 08:31:29;;;;;;;4.35;2.60;;;;;;;17.58;100.00;99706.57;1745482;80;21129;-63
2022/06/05 08:33:57;;;;;;;3.12;2.50;;;;;;;17.68;100.00;99708.47;1748094;80;21576;-63
2022/06/05 08:36:24;;;;;;;4.28;2.35;;;;;;;17.80;100.00;99700.98;1732084;82;21129;-66
2022/06/05 08:41:46;;;;;;;3.52;2.20;;;;;;;17.92;100.00;99703.13;1740347;81;21109;-65
2022/06/05 08:44:45;;;;;;;3.08;2.20;;;;;;;18.01;100.00;99704.75;1734343;81;20998;-65
2022/06/05 08:47:18;;;;;;;4.55;2.35;;;;;;;18.01;100.00;99692.92;1737024;81;21364;-64
2022/06/05 08:50:15;;;;;;;3.40;2.45;;;;;;;18.32;100.00;99705.99;1731048;81;20986;-64
2022/06/05 09:54:30;;;;;;;3.60;1.90;;;;;;;18.80;100.00;99692.88;1797540;78;22601;-64
2022/06/05 10:00:15;;;;;;;6.53;1.90;;;;;;;19.21;100.00;99690.90;1759588;80;21796;-65
2022/06/05 10:02:43;;;;;;;3.10;1.90;;;;;;;19.41;100.00;99689.41;1746907;81;21596;-65
2022/06/05 10:05:26;;;;;;;4.95;1.80;;;;;;;19.52;100.00;99700.30;1744171;81;20959;-63
2022/06/05 10:08:04;;;;;;;2.72;1.80;;;;;;;19.67;100.00;99692.03;1751634;80;21105;-64
2022/06/05 10:10:38;;;;;;;3.80;2.10;;;;;;;19.77;100.00;99689.70;1726553;81;20967;-65
2022/06/05 10:13:42;;;;;;;2.85;2.00;;;;;;;19.91;100.00;99695.58;1762234;81;21121;-62
2022/06/05 10:16:47;;;;;;;3.80;2.15;;;;;;;20.07;100.00;99692.45;1732791;81;20986;-62
2022/06/05 10:19:42;;;;;;;3.22;1.80;;;;;;;20.15;100.00;99692.97;1732017;82;21041;-62
2022/06/05 10:22:28;;;;;;;2.85;2.00;;;;;;;20.26;100.00;99691.43;1731819;83;21058;-61
2022/06/05 10:25:20;;;;;;;3.65;1.82;;;;;;;20.31;100.00;99705.88;1745974;81;21470;-62
2022/06/05 10:27:57;;;;;;;3.10;1.42;;;;;;;20.44;100.00;99700.42;1712722;81;21089;-63
2022/06/05 10:30:30;;;;;;;2.50;1.55;;;;;;;20.60;100.00;99700.03;1730890;81;21038;-64
2022/06/05 10:33:19;;;;;;;2.00;1.40;;;;;;;20.72;100.00;99696.77;1736624;81;21532;-63
2022/06/05 10:36:19;;;;;;;2.87;1.82;;;;;;;20.90;100.00;99697.41;1734437;81;21445;-61
2022/06/05 10:39:23;;;;;;;1.95;1.50;;;;;;;21.12;100.00;99690.09;1747467;81;21957;-62
2022/06/05 10:41:55;;;;;;;2.52;1.55;;;;;;;21.17;100.00;99695.42;1724797;83;21033;-62
2022/06/05 10:44:54;;;;;;;3.02;1.67;;;;;;;21.20;100.00;99682.27;1746684;81;21142;-62
2022/06/05 10:47:29;;;;;;;3.62;1.60;;;;;;;21.51;100.00;99698.34;1755565;81;21110;-62
2022/06/05 10:50:10;;;;;;;2.92;1.57;;;;;;;21.64;100.00;99701.38;1732150;83;21424;-62
2022/06/05 10:52:54;;;;;;;1.70;1.20;;;;;;;21.73;100.00;99704.82;1753280;81;21047;-64
2022/06/05 10:56:01;;;;;;;2.92;1.60;;;;;;;21.78;100.00;99700.45;1742273;82;21406;-63
2022/06/05 10:58:42;;;;;;;4.12;1.65;;;;;;;21.77;100.00;99702.16;1723629;82;21050;-63
2022/06/05 11:01:46;;;;;;;3.35;1.57;;;;;;;21.86;100.00;99700.06;1723963;82;20987;-63
2022/06/05 11:08:27;;;;;;;3.60;1.40;;;;;;;22.00;100.00;99692.84;1797633;79;22763;-61
2022/06/05 11:14:56;;;;;;;3.62;1.40;;;;;;;21.95;100.00;99701.38;1741468;82;21023;-59
2022/06/05 11:17:48;;;;;;;2.20;1.47;;;;;;;22.07;100.00;99701.38;1741130;82;21053;-60
2022/06/05 11:20:21;;;;;;;3.60;1.72;;;;;;;22.07;100.00;99695.23;1730858;82;21594;-60
2022/06/05 11:23:02;;;;;;;4.03;1.30;;;;;;;22.11;100.00;99689.22;1735232;82;21509;-61
2022/06/05 11:25:41;;;;;;;2.77;1.25;;;;;;;22.22;100.00;99698.67;1735755;82;21128;-63
2022/06/05 11:28:22;;;;;;;2.15;1.30;;;;;;;22.25;100.00;99695.20;1722821;82;21064;-59
2022/06/05 11:30:57;;;;;;;1.72;1.40;;;;;;;22.27;100.00;99698.44;1731328;82;21138;-62
2022/06/05 11:33:28;;;;;;;1.62;1.20;;;;;;;22.06;100.00;99696.41;1733714;82;21019;-61
2022/06/05 11:36:24;;;;;;;2.50;1.27;;;;;;;22.10;100.00;99702.06;1722129;82;21502;-61
2022/06/05 11:39:14;;;;;;;1.85;1.20;;;;;;;22.11;100.00;99697.53;1734085;82;21003;-63
2022/06/05 11:42:14;;;;;;;2.33;1.10;;;;;;;22.17;100.00;99693.39;1734948;80;21017;-64
2022/06/05 11:45:07;;;;;;;1.92;0.95;;;;;;;22.26;100.00;99694.05;1727121;80;21610;-61
2022/06/05 11:47:51;;;;;;;2.47;1.00;;;;;;;22.30;100.00;99699.13;1745505;82;21059;-62
2022/06/05 11:50:26;;;;;;;3.22;1.20;;;;;;;22.27;100.00;99700.41;1718770;80;65345;-68
2022/06/05 11:52:57;;;;;;;2.67;1.00;;;;;;;22.33;100.00;99701.77;1715867;82;21059;-68
2022/06/05 11:55:34;;;;;;;1.95;1.10;;;;;;;22.53;100.00;99698.61;1749914;80;21074;-69
2022/06/05 11:58:05;;;;;;;2.17;1.20;;;;;;;22.65;100.00;99693.00;1715613;83;21072;-71
2022/06/05 12:00:43;;;;;;;2.62;1.00;;;;;;;22.75;100.00;99691.13;1677559;84;21150;-70
2022/06/05 12:03:18;;;;;;;2.50;1.12;;;;;;;22.87;100.00;99698.60;1670989;85;21075;-69
2022/06/05 12:06:17;;;;;;;2.00;1.02;;;;;;;23.00;100.00;99689.85;1753266;81;21062;-67
2022/06/05 12:08:51;;;;;;;2.00;1.12;;;;;;;23.14;100.00;99696.36;1743801;82;21482;-67
2022/06/05 12:11:43;;;;;;;3.70;1.03;;;;;;;23.30;100.00;99688.30;1741993;80;21567;-68
2022/06/05 12:14:15;;;;;;;4.17;1.20;;;;;;;23.45;100.00;99685.91;1741735;81;21476;-66
2022/06/05 12:17:08;;;;;;;3.12;1.10;;;;;;;23.39;91.76;99688.69;1748389;79;21530;-66
2022/06/05 12:20:06;;;;;;;3.95;1.10;;;;;;;23.29;94.58;99695.01;1727995;82;20951;-67
2022/06/05 12:22:43;;;;;;;3.52;1.42;;;;;;;23.17;98.11;99693.68;1755793;80;21461;-66
2022/06/05 12:25:21;;;;;;;1.92;0.95;;;;;;;23.03;100.00;99696.08;1751414;82;21026;-67
2022/06/05 12:28:03;;;;;;;3.70;1.15;;;;;;;22.68;99.96;99693.70;1751820;82;20979;-67
2022/06/05 12:30:37;;;;;;;1.65;0.85;;;;;;;22.43;100.00;99697.69;1748108;81;21018;-66
2022/06/05 12:33:20;;;;;;;3.50;1.00;;;;;;;22.35;100.00;99695.88;1750690;81;20975;-68
2022/06/05 12:35:51;;;;;;;3.90;1.25;;;;;;;22.17;100.00;99697.55;1692643;82;20966;-67
2022/06/05 12:38:42;;;;;;;4.28;1.10;;;;;;;21.98;100.00;99700.67;1751871;82;20965;-68
2022/06/05 12:41:20;;;;;;;2.37;1.05;;;;;;;21.84;100.00;99705.16;1751150;81;21034;-69
2022/06/05 12:43:58;;;;;;;2.95;1.17;;;;;;;21.65;100.00;99699.38;1751470;82;20947;-68
2022/06/05 12:46:42;;;;;;;3.83;1.40;;;;;;;21.45;100.00;99700.30;1751022;80;21070;-68
2022/06/05 12:49:41;;;;;;;2.87;1.10;;;;;;;21.44;100.00;99703.64;1711772;82;21023;-69
2022/06/05 12:52:25;;;;;;;2.42;1.12;;;;;;;21.46;100.00;99695.81;1744092;81;21086;-69
2022/06/05 12:55:19;;;;;;;2.20;1.27;;;;;;;21.43;100.00;99697.08;1743591;81;21466;-69
2022/06/05 12:57:57;;;;;;;2.30;1.00;;;;;;;21.53;100.00;99698.01;1744511;82;20987;-69
2022/06/05 13:00:53;;;;;;;2.12;1.20;;;;;;;21.67;100.00;99690.16;1744073;82;21070;-69
2022/06/05 13:03:40;;;;;;;2.55;1.30;;;;;;;21.81;100.00;99689.23;1743710;82;20959;-68
2022/06/05 13:06:29;;;;;;;1.90;1.10;;;;;;;21.96;100.00;99680.26;1722871;82;21094;-68
2022/06/05 13:08:59;;;;;;;2.25;1.10;;;;;;;22.11;100.00;99676.74;1720828;82;21006;-69
2022/06/05 13:11:36;;;;;;;3.00;1.12;;;;;;;22.09;100.00;99681.03;1743595;81;21533;-68
2022/06/05 13:14:11;;;;;;;2.22;1.07;;;;;;;22.13;100.00;99671.67;1744284;82;20971;-69
2022/06/05 13:16:58;;;;;;;1.37;0.80;;;;;;;22.17;100.00;99674.55;1743388;81;21104;-69
2022/06/05 13:19:39;;;;;;;1.45;1.00;;;;;;;22.19;100.00;99671.66;1744049;82;21529;-68
2022/06/05 13:22:28;;;;;;;2.98;0.90;;;;;;;22.27;100.00;99669.33;1696022;82;21080;-69
2022/06/05 13:25:11;;;;;;;2.42;1.10;;;;;;;22.53;100.00;99671.65;1744634;82;21015;-68